createdAt,value
2023-01-18T00:01:19.555Z,94604.00
2023-01-18T00:03:47.241Z,94602.38
2023-01-18T00:06:17.966Z,94600.47
2023-01-18T00:08:45.207Z,94594.16
2023-01-18T00:11:16.084Z,94591.56
2023-01-18T00:13:44.207Z,94584.25
2023-01-18T00:16:16.222Z,94588.19
2023-01-18T00:18:44.518Z,94591.69
2023-01-18T00:21:12.777Z,94595.16
2023-01-18T00:23:39.998Z,94577.94
2023-01-18T00:26:11.241Z,94571.66
2023-01-18T00:28:39.725Z,94570.81
2023-01-18T00:31:16.895Z,94566.53
2023-01-18T00:33:46.944Z,94568.44
2023-01-18T00:36:15.604Z,94562.56
2023-01-18T00:38:43.222Z,94556.16
2023-01-18T00:41:10.567Z,94554.75
2023-01-18T00:43:40.856Z,94552.78
2023-01-18T00:46:15.413Z,94558.09
2023-01-18T00:48:44.311Z,94560.06
2023-01-18T00:51:17.059Z,94555.63
2023-01-18T00:53:44.864Z,94559.25
2023-01-18T00:56:17.475Z,94554.84
2023-01-18T00:58:45.138Z,94552.88
2023-01-18T01:01:13.742Z,94542.53
2023-01-18T01:03:59.780Z,94540.97
2023-01-18T01:06:45.918Z,94541.84
2023-01-18T01:09:25.195Z,94544.63
2023-01-18T01:12:12.880Z,94542.06
2023-01-18T01:15:03.294Z,94542.16
2023-01-18T01:17:51.638Z,94545.16
2023-01-18T01:20:38.045Z,94542.34
2023-01-18T01:23:36.446Z,94546.78
2023-01-18T01:26:10.990Z,94549.81
2023-01-18T01:28:41.747Z,94553.06
2023-01-18T01:31:14.641Z,94547.84
2023-01-18T01:33:42.546Z,94547.53
2023-01-18T01:36:17.671Z,94547.28
2023-01-18T01:38:45.449Z,94547.84
2023-01-18T01:41:30.238Z,94541.47
2023-01-18T01:44:20.802Z,94537.78
2023-01-18T01:46:52.517Z,94535.28
2023-01-18T01:49:36.792Z,94531.41
2023-01-18T01:52:07.475Z,94526.69
2023-01-18T01:54:54.677Z,94532.66
2023-01-18T01:57:27.819Z,94530.56
2023-01-18T02:00:10.350Z,94529.31
2023-01-18T02:02:43.677Z,94528.44
2023-01-18T02:05:15.574Z,94537.41
2023-01-18T02:07:42.941Z,94535.06
2023-01-18T02:10:11.610Z,94527.22
2023-01-18T02:12:46.158Z,94524.06
2023-01-18T02:15:13.935Z,94531.13
2023-01-18T02:18:10.905Z,94537.59
2023-01-18T02:21:12.063Z,94544.34
2023-01-18T02:24:01.573Z,94544.56
2023-01-18T02:26:51.039Z,94560.63
2023-01-18T02:29:51.013Z,94561.53
2023-01-18T02:32:35.509Z,94565.41
2023-01-18T02:35:28.617Z,94563.69
2023-01-18T02:38:20.824Z,94562.28
2023-01-18T02:41:22.596Z,94564.63
2023-01-18T02:44:14.034Z,94557.47
2023-01-18T02:46:42.394Z,94559.50
2023-01-18T02:49:20.228Z,94561.34
2023-01-18T02:51:47.545Z,94550.13
2023-01-18T02:54:24.399Z,94544.63
2023-01-18T02:56:54.622Z,94545.50
2023-01-18T02:59:39.163Z,94546.13
2023-01-18T03:02:15.244Z,94537.53
2023-01-18T03:04:58.348Z,94524.59
2023-01-18T03:07:31.278Z,94523.75
2023-01-18T03:10:01.749Z,94514.16
2023-01-18T03:13:10.077Z,94489.75
2023-01-18T03:16:03.973Z,94485.75
2023-01-18T03:19:03.125Z,94457.16
2023-01-18T03:21:44.575Z,94439.13
2023-01-18T03:24:14.414Z,94450.19
2023-01-18T03:26:48.818Z,94445.09
2023-01-18T03:29:37.355Z,94444.81
2023-01-18T03:32:33.624Z,94452.59
2023-01-18T03:35:03.385Z,94456.59
2023-01-18T03:37:37.755Z,94455.34
2023-01-18T03:40:19.699Z,94458.53
2023-01-18T03:43:16.476Z,94488.94
2023-01-18T03:45:49.500Z,94486.25
2023-01-18T03:48:17.300Z,94496.31
2023-01-18T03:51:01.265Z,94491.31
2023-01-18T03:54:15.959Z,94486.97
2023-01-18T03:57:25.651Z,94475.13
2023-01-18T03:59:52.957Z,94466.66
2023-01-18T04:02:23.049Z,94447.53
2023-01-18T04:04:50.648Z,94454.78
2023-01-18T04:07:17.883Z,94458.97
2023-01-18T04:09:45.161Z,94468.94
2023-01-18T04:12:12.444Z,94465.50
2023-01-18T04:14:39.646Z,94472.28
2023-01-18T04:17:06.908Z,94479.63
2023-01-18T04:19:34.032Z,94489.91
2023-01-18T04:22:01.529Z,94491.38
2023-01-18T04:24:29.568Z,94482.78
2023-01-18T04:26:56.794Z,94485.88
2023-01-18T04:29:24.140Z,94482.31
2023-01-18T04:31:51.507Z,94470.84
2023-01-18T04:34:18.700Z,94466.47
2023-01-18T04:36:45.980Z,94469.75
2023-01-18T04:39:14.360Z,94466.50
2023-01-18T04:41:41.704Z,94460.88
2023-01-18T04:44:09.454Z,94464.66
2023-01-18T04:46:39.404Z,94457.31
2023-01-18T04:49:10.753Z,94451.59
2023-01-18T04:51:39.439Z,94460.78
2023-01-18T04:54:06.734Z,94461.94
2023-01-18T04:56:34.761Z,94467.91
2023-01-18T04:59:02.276Z,94484.81
2023-01-18T05:01:29.839Z,94473.72
2023-01-18T05:03:57.508Z,94476.91
2023-01-18T05:06:24.923Z,94480.06
2023-01-18T05:08:52.594Z,94491.06
2023-01-18T05:11:23.271Z,94492.78
2023-01-18T05:13:50.544Z,94486.03
2023-01-18T05:16:23.502Z,94483.31
2023-01-18T05:18:51.188Z,94486.31
2023-01-18T05:21:18.420Z,94491.31
2023-01-18T05:23:46.212Z,94497.88
2023-01-18T05:26:23.586Z,94490.34
2023-01-18T05:28:56.694Z,94484.00
2023-01-18T05:31:24.591Z,94474.53
2023-01-18T05:33:57.557Z,94466.31
2023-01-18T05:36:24.982Z,94467.88
2023-01-18T05:38:52.217Z,94472.34
2023-01-18T05:41:21.075Z,94472.75
2023-01-18T05:43:48.453Z,94472.47
2023-01-18T05:46:15.985Z,94487.88
2023-01-18T05:48:43.291Z,94499.84
2023-01-18T05:51:11.615Z,94495.69
2023-01-18T05:53:39.905Z,94499.34
2023-01-18T05:56:08.935Z,94501.38
2023-01-18T05:58:36.219Z,94498.94
2023-01-18T06:01:03.607Z,94487.56
2023-01-18T06:03:31.037Z,94496.53
2023-01-18T06:05:59.388Z,94496.72
2023-01-18T06:08:27.360Z,94503.97
2023-01-18T06:10:56.206Z,94519.19
2023-01-18T06:13:25.092Z,94515.13
2023-01-18T06:15:54.736Z,94515.03
2023-01-18T06:18:23.763Z,94512.91
2023-01-18T06:21:00.263Z,94513.72
2023-01-18T06:23:30.440Z,94514.97
2023-01-18T06:25:58.177Z,94516.47
2023-01-18T06:28:26.198Z,94513.34
2023-01-18T06:30:55.412Z,94502.03
2023-01-18T06:33:25.332Z,94505.97
2023-01-18T06:35:52.786Z,94508.94
2023-01-18T06:38:20.779Z,94509.66
2023-01-18T06:40:48.093Z,94507.78
2023-01-18T06:43:16.195Z,94512.38
2023-01-18T06:45:43.738Z,94521.16
2023-01-18T06:48:11.006Z,94528.63
2023-01-18T06:50:38.243Z,94536.88
2023-01-18T06:53:08.016Z,94551.53
2023-01-18T06:55:35.376Z,94550.47
2023-01-18T06:58:02.757Z,94557.94
2023-01-18T07:00:30.119Z,94550.03
2023-01-18T07:02:58.607Z,94550.34
2023-01-18T07:05:26.237Z,94559.97
2023-01-18T07:07:53.459Z,94558.84
2023-01-18T07:10:20.786Z,94557.44
2023-01-18T07:12:48.923Z,94561.53
2023-01-18T07:15:21.807Z,94553.50
2023-01-18T07:17:53.041Z,94546.03
2023-01-18T07:20:20.478Z,94549.75
2023-01-18T07:22:53.931Z,94550.78
2023-01-18T07:25:22.724Z,94534.34
2023-01-18T07:27:50.116Z,94531.50
2023-01-18T07:30:18.117Z,94544.63
2023-01-18T07:32:53.413Z,94555.19
2023-01-18T07:35:22.373Z,94555.72
2023-01-18T07:37:55.840Z,94568.19
2023-01-18T07:40:23.522Z,94575.50
2023-01-18T07:42:58.056Z,94580.25
2023-01-18T07:45:25.563Z,94587.75
2023-01-18T07:47:53.500Z,94589.19
2023-01-18T07:50:22.515Z,94575.19
2023-01-18T07:52:49.855Z,94563.31
2023-01-18T07:55:17.077Z,94548.50
2023-01-18T07:57:44.375Z,94544.03
2023-01-18T08:00:12.623Z,94555.38
2023-01-18T08:02:40.666Z,94570.53
2023-01-18T08:05:10.608Z,94566.56
2023-01-18T08:07:38.168Z,94575.53
2023-01-18T08:10:05.971Z,94586.47
2023-01-18T08:12:35.666Z,94592.03
2023-01-18T08:15:04.588Z,94617.53
2023-01-18T08:17:31.840Z,94610.78
2023-01-18T08:19:59.101Z,94598.59
2023-01-18T08:22:26.330Z,94598.00
2023-01-18T08:24:53.651Z,94586.97
2023-01-18T08:27:21.048Z,94595.13
2023-01-18T08:29:48.491Z,94596.56
2023-01-18T08:32:15.922Z,94599.78
2023-01-18T08:34:43.358Z,94607.34
2023-01-18T08:37:11.967Z,94611.63
2023-01-18T08:39:39.371Z,94616.13
2023-01-18T08:42:06.827Z,94616.56
2023-01-18T08:44:34.132Z,94634.09
2023-01-18T08:47:01.406Z,94633.50
2023-01-18T08:49:28.679Z,94644.09
2023-01-18T08:51:57.446Z,94651.41
2023-01-18T08:54:24.971Z,94646.13
2023-01-18T08:56:54.740Z,94655.53
2023-01-18T08:59:23.833Z,94650.91
2023-01-18T09:01:51.363Z,94656.56
2023-01-18T09:04:18.697Z,94662.84
2023-01-18T09:06:47.401Z,94677.06
2023-01-18T09:09:14.832Z,94668.75
2023-01-18T09:11:42.134Z,94675.31
2023-01-18T09:14:09.413Z,94677.91
2023-01-18T09:16:36.766Z,94679.75
2023-01-18T09:19:06.599Z,94678.00
2023-01-18T09:21:36.993Z,94673.53
2023-01-18T09:24:04.609Z,94681.44
2023-01-18T09:26:31.850Z,94687.09
2023-01-18T09:28:59.140Z,94691.59
2023-01-18T09:31:28.376Z,94693.72
2023-01-18T09:34:09.594Z,94694.63
2023-01-18T09:36:45.697Z,94705.63
2023-01-18T09:39:12.892Z,94709.59
2023-01-18T09:41:49.727Z,94724.81
2023-01-18T09:44:32.370Z,94727.47
2023-01-18T09:47:26.672Z,94736.50
2023-01-18T09:50:10.906Z,94745.59
2023-01-18T09:53:01.283Z,94745.41
2023-01-18T09:55:57.132Z,94749.47
2023-01-18T09:58:55.065Z,94757.72
2023-01-18T10:01:31.770Z,94757.88
2023-01-18T10:04:25.319Z,94755.19
2023-01-18T10:07:08.684Z,94762.94
2023-01-18T10:09:59.121Z,94775.78
2023-01-18T10:12:45.951Z,94778.66
2023-01-18T10:15:28.380Z,94785.56
2023-01-18T10:17:58.819Z,94779.78
2023-01-18T10:20:51.856Z,94797.22
2023-01-18T10:23:38.726Z,94792.44
2023-01-18T10:26:29.229Z,94798.66
2023-01-18T10:29:42.414Z,94802.84
2023-01-18T10:32:29.118Z,94807.63
2023-01-18T10:34:57.808Z,94798.97
2023-01-18T10:37:40.478Z,94801.44
2023-01-18T10:40:11.130Z,94805.13
2023-01-18T10:42:51.185Z,94812.41
2023-01-18T10:45:23.927Z,94811.84
2023-01-18T10:47:54.104Z,94818.28
2023-01-18T10:50:38.500Z,94819.81
2023-01-18T10:53:24.191Z,94828.22
2023-01-18T10:56:06.043Z,94828.22
2023-01-18T10:58:46.312Z,94829.94
2023-01-18T11:01:20.398Z,94828.56
2023-01-18T11:04:05.985Z,94843.06
2023-01-18T11:06:50.922Z,94836.38
2023-01-18T11:09:53.918Z,94842.94
2023-01-18T11:12:34.981Z,94841.47
2023-01-18T11:15:14.222Z,94844.16
2023-01-18T11:17:54.633Z,94861.41
2023-01-18T11:20:51.694Z,94865.72
2023-01-18T11:23:37.366Z,94872.69
2023-01-18T11:26:19.284Z,94879.84
2023-01-18T11:29:06.991Z,94882.31
2023-01-18T11:31:49.831Z,94889.19
2023-01-18T11:34:31.675Z,94894.81
2023-01-18T11:37:01.674Z,94896.00
2023-01-18T11:39:38.057Z,94897.25
2023-01-18T11:42:31.723Z,94899.66
2023-01-18T11:45:25.018Z,94907.88
2023-01-18T11:48:06.197Z,94915.28
2023-01-18T11:50:55.321Z,94919.81
2023-01-18T11:53:46.262Z,94926.03
2023-01-18T11:56:22.441Z,94930.25
2023-01-18T11:58:49.769Z,94929.53
2023-01-18T12:01:46.020Z,94932.38
2023-01-18T12:05:10.298Z,94936.00
2023-01-18T12:07:37.493Z,94937.75
2023-01-18T12:10:10.657Z,94948.59
2023-01-18T12:12:41.530Z,94952.72
2023-01-18T12:15:57.857Z,94960.16
2023-01-18T12:18:38.253Z,94965.34
2023-01-18T12:21:27.624Z,94966.09
2023-01-18T12:24:46.046Z,94973.13
2023-01-18T12:27:32.148Z,94985.59
2023-01-18T12:30:30.213Z,94996.38
2023-01-18T12:33:06.647Z,95002.97
2023-01-18T12:35:42.416Z,95012.19
2023-01-18T12:38:23.433Z,95013.88
2023-01-18T12:41:05.963Z,95025.09
2023-01-18T12:44:06.305Z,95023.66
2023-01-18T12:47:15.987Z,95030.00
2023-01-18T12:49:51.423Z,95040.22
2023-01-18T12:52:23.572Z,95033.84
2023-01-18T12:55:04.000Z,95045.09
2023-01-18T12:57:32.020Z,95048.72
2023-01-18T13:00:16.530Z,95050.97
2023-01-18T13:02:49.058Z,95058.63
2023-01-18T13:06:12.297Z,95055.78
2023-01-18T13:08:43.733Z,95065.16
2023-01-18T13:11:21.120Z,95068.91
2023-01-18T13:14:07.157Z,95085.75
2023-01-18T13:17:03.670Z,95093.47
2023-01-18T13:20:13.024Z,95094.72
2023-01-18T13:23:23.877Z,95101.75
2023-01-18T13:26:18.638Z,95113.59
2023-01-18T13:28:46.522Z,95118.47
2023-01-18T13:31:14.300Z,95127.91
2023-01-18T13:33:48.365Z,95131.84
2023-01-18T13:36:20.272Z,95132.28
2023-01-18T13:39:01.104Z,95151.28
2023-01-18T13:41:30.979Z,95155.78
2023-01-18T13:44:04.091Z,95154.25
2023-01-18T13:46:36.802Z,95177.56
2023-01-18T13:49:44.614Z,95174.63
2023-01-18T13:52:34.075Z,95179.25
2023-01-18T13:55:25.729Z,95180.81
2023-01-18T13:57:56.507Z,95194.28
2023-01-18T14:00:29.004Z,95204.75
2023-01-18T14:03:20.730Z,95198.47
2023-01-18T14:05:49.406Z,95209.28
2023-01-18T14:08:32.829Z,95216.13
2023-01-18T14:11:09.451Z,95217.91
2023-01-18T14:13:46.012Z,95238.59
2023-01-18T14:16:30.390Z,95241.00
2023-01-18T14:19:17.129Z,95252.47
2023-01-18T14:22:11.269Z,95251.69
2023-01-18T14:24:41.437Z,95237.91
2023-01-18T14:27:18.453Z,95251.03
2023-01-18T14:30:04.557Z,95253.31
2023-01-18T14:32:40.613Z,95262.66
2023-01-18T14:35:26.161Z,95273.94
2023-01-18T14:38:18.911Z,95269.66
2023-01-18T14:40:57.516Z,95277.13
2023-01-18T14:43:41.803Z,95286.59
2023-01-18T14:46:40.666Z,95296.59
2023-01-18T14:49:16.899Z,95303.91
2023-01-18T14:51:49.928Z,95302.25
2023-01-18T14:54:18.607Z,95315.97
2023-01-18T14:56:45.942Z,95309.41
2023-01-18T14:59:27.693Z,95313.13
2023-01-18T15:01:58.208Z,95318.88
2023-01-18T15:04:32.972Z,95322.75
2023-01-18T15:07:10.615Z,95321.91
2023-01-18T15:09:39.794Z,95323.38
2023-01-18T15:12:11.973Z,95326.38
2023-01-18T15:14:46.148Z,95343.13
2023-01-18T15:17:26.293Z,95339.94
2023-01-18T15:19:59.746Z,95337.91
2023-01-18T15:22:40.481Z,95335.13
2023-01-18T15:25:32.157Z,95342.78
2023-01-18T15:28:18.386Z,95340.22
2023-01-18T15:30:56.194Z,95347.50
2023-01-18T15:33:26.253Z,95343.06
2023-01-18T15:36:03.514Z,95335.91
2023-01-18T15:38:31.213Z,95338.25
2023-01-18T15:41:14.746Z,95336.13
2023-01-18T15:43:46.037Z,95336.22
2023-01-18T15:46:16.446Z,95337.44
2023-01-18T15:48:57.786Z,95345.22
2023-01-18T15:51:45.261Z,95352.31
2023-01-18T15:54:22.522Z,95367.41
2023-01-18T15:56:50.109Z,95384.44
2023-01-18T15:59:25.103Z,95390.34
2023-01-18T16:02:19.614Z,95399.94
2023-01-18T16:04:47.528Z,95399.38
2023-01-18T16:07:38.883Z,95417.00
2023-01-18T16:10:18.108Z,95426.59
2023-01-18T16:12:48.531Z,95438.09
2023-01-18T16:15:26.388Z,95451.41
2023-01-18T16:18:04.113Z,95454.03
2023-01-18T16:20:35.169Z,95454.56
2023-01-18T16:23:20.504Z,95452.63
2023-01-18T16:26:04.978Z,95454.44
2023-01-18T16:28:32.327Z,95460.13
2023-01-18T16:31:03.419Z,95468.75
2023-01-18T16:33:30.847Z,95486.22
2023-01-18T16:35:58.135Z,95488.28
2023-01-18T16:38:25.506Z,95493.53
2023-01-18T16:40:52.937Z,95485.63
2023-01-18T16:43:27.327Z,95491.13
2023-01-18T16:45:59.035Z,95495.56
2023-01-18T16:48:29.467Z,95492.72
2023-01-18T16:50:59.501Z,95505.47
2023-01-18T16:53:27.824Z,95510.75
2023-01-18T16:55:56.662Z,95509.50
2023-01-18T16:58:24.270Z,95504.34
2023-01-18T17:01:11.368Z,95514.31
2023-01-18T17:03:39.634Z,95515.66
2023-01-18T17:06:07.282Z,95515.38
2023-01-18T17:08:34.692Z,95518.53
2023-01-18T17:11:01.944Z,95522.72
2023-01-18T17:13:29.143Z,95520.63
2023-01-18T17:15:56.321Z,95519.31
2023-01-18T17:18:25.977Z,95527.44
2023-01-18T17:20:54.757Z,95534.47
2023-01-18T17:23:23.161Z,95526.13
2023-01-18T17:25:50.447Z,95549.66
2023-01-18T17:28:19.632Z,95545.97
2023-01-18T17:30:49.771Z,95548.81
2023-01-18T17:33:20.911Z,95550.88
2023-01-18T17:35:50.840Z,95561.31
2023-01-18T17:38:29.220Z,95556.91
2023-01-18T17:40:58.316Z,95573.38
2023-01-18T17:43:33.860Z,95572.41
2023-01-18T17:46:08.093Z,95575.81
2023-01-18T17:48:35.438Z,95576.34
2023-01-18T17:51:09.848Z,95576.09
2023-01-18T17:53:39.243Z,95570.59
2023-01-18T17:56:13.173Z,95572.69
2023-01-18T17:58:40.832Z,95568.78
2023-01-18T18:01:13.461Z,95572.91
2023-01-18T18:03:45.363Z,95580.75
2023-01-18T18:06:14.513Z,95578.41
2023-01-18T18:08:44.906Z,95588.06
2023-01-18T18:11:13.766Z,95590.69
2023-01-18T18:13:42.622Z,95595.09
2023-01-18T18:16:18.065Z,95604.00
2023-01-18T18:18:46.071Z,95608.41
2023-01-18T18:21:13.357Z,95622.00
2023-01-18T18:23:40.750Z,95631.06
2023-01-18T18:26:08.235Z,95634.47
2023-01-18T18:28:35.520Z,95637.59
2023-01-18T18:31:03.031Z,95633.72
2023-01-18T18:33:33.368Z,95627.94
2023-01-18T18:36:01.516Z,95630.84
2023-01-18T18:38:28.811Z,95636.56
2023-01-18T18:41:04.677Z,95641.31
2023-01-18T18:43:32.787Z,95645.50
2023-01-18T18:46:00.108Z,95646.00
2023-01-18T18:48:27.432Z,95660.91
2023-01-18T18:50:54.661Z,95665.88
2023-01-18T18:53:29.694Z,95673.69
2023-01-18T18:56:12.189Z,95675.25
2023-01-18T18:58:42.270Z,95679.91
2023-01-18T19:01:21.561Z,95687.22
2023-01-18T19:03:50.774Z,95682.53
2023-01-18T19:06:19.325Z,95670.78
2023-01-18T19:08:47.416Z,95662.22
2023-01-18T19:11:15.743Z,95658.03
2023-01-18T19:13:44.668Z,95653.56
2023-01-18T19:16:12.450Z,95657.72
2023-01-18T19:18:39.856Z,95671.28
2023-01-18T19:21:07.751Z,95680.97
2023-01-18T19:23:35.209Z,95687.75
2023-01-18T19:26:02.730Z,95689.03
2023-01-18T19:28:30.014Z,95687.75
2023-01-18T19:31:09.031Z,95693.53
2023-01-18T19:33:37.244Z,95703.41
2023-01-18T19:36:11.919Z,95700.03
2023-01-18T19:38:48.174Z,95704.19
2023-01-18T19:41:18.109Z,95693.50
2023-01-18T19:43:50.370Z,95690.63
2023-01-18T19:46:18.263Z,95684.09
2023-01-18T19:48:45.617Z,95689.84
2023-01-18T19:51:22.471Z,95689.78
2023-01-18T19:53:55.171Z,95700.50
2023-01-18T19:56:24.527Z,95708.88
2023-01-18T19:58:51.942Z,95717.72
2023-01-18T20:01:34.760Z,95721.88
2023-01-18T20:04:05.973Z,95719.03
2023-01-18T20:06:34.652Z,95715.88
2023-01-18T20:09:02.796Z,95726.81
2023-01-18T20:11:31.246Z,95716.81
2023-01-18T20:13:58.589Z,95726.22
2023-01-18T20:16:28.974Z,95728.81
2023-01-18T20:18:56.419Z,95724.66
2023-01-18T20:21:24.118Z,95727.53
2023-01-18T20:23:51.409Z,95726.94
2023-01-18T20:26:34.870Z,95724.06
2023-01-18T20:29:07.280Z,95728.31
2023-01-18T20:31:36.956Z,95733.56
2023-01-18T20:34:05.733Z,95744.78
2023-01-18T20:36:36.705Z,95746.91
2023-01-18T20:39:06.205Z,95731.78
2023-01-18T20:41:33.551Z,95732.78
2023-01-18T20:44:00.782Z,95725.50
2023-01-18T20:46:30.274Z,95733.09
2023-01-18T20:48:57.690Z,95729.63
2023-01-18T20:51:25.016Z,95733.75
2023-01-18T20:53:52.326Z,95722.03
2023-01-18T20:56:34.596Z,95724.91
2023-01-18T20:59:02.104Z,95735.59
2023-01-18T21:01:32.923Z,95734.47
2023-01-18T21:04:04.709Z,95739.00
2023-01-18T21:06:35.239Z,95738.47
2023-01-18T21:09:02.524Z,95741.53
2023-01-18T21:11:29.859Z,95741.78
2023-01-18T21:14:03.164Z,95740.69
2023-01-18T21:16:30.886Z,95742.22
2023-01-18T21:19:01.207Z,95749.53
2023-01-18T21:21:29.757Z,95753.94
2023-01-18T21:23:57.302Z,95754.59
2023-01-18T21:26:24.510Z,95756.31
2023-01-18T21:28:51.814Z,95758.97
2023-01-18T21:31:19.302Z,95766.13
2023-01-18T21:33:46.782Z,95765.28
2023-01-18T21:36:20.301Z,95766.03
2023-01-18T21:38:47.612Z,95756.31
2023-01-18T21:41:34.675Z,95779.44
2023-01-18T21:44:20.741Z,95806.72
2023-01-18T21:46:51.206Z,95797.13
2023-01-18T21:52:44.957Z,95809.59
2023-01-18T21:55:13.051Z,95805.75
2023-01-18T21:57:40.243Z,95804.22
2023-01-18T22:00:08.950Z,95805.19
2023-01-18T22:02:37.252Z,95806.41
2023-01-18T22:05:04.963Z,95800.34
2023-01-18T22:07:35.212Z,95811.78
2023-01-18T22:10:06.221Z,95815.88
2023-01-18T22:12:35.735Z,95821.13
2023-01-18T22:15:05.308Z,95824.59
2023-01-18T22:17:32.771Z,95831.41
2023-01-18T22:20:02.675Z,95823.06
2023-01-18T22:22:30.098Z,95821.53
2023-01-18T22:25:00.342Z,95833.25
2023-01-18T22:27:27.919Z,95848.09
2023-01-18T22:29:55.287Z,95840.47
2023-01-18T22:32:22.636Z,95851.41
2023-01-18T22:34:49.841Z,95862.06
2023-01-18T22:37:17.239Z,95859.75
2023-01-18T22:39:44.476Z,95852.22
2023-01-18T22:42:11.835Z,95854.47
2023-01-18T22:44:39.021Z,95843.94
2023-01-18T22:47:08.846Z,95842.88
2023-01-18T22:49:35.988Z,95852.56
2023-01-18T22:52:03.272Z,95858.56
2023-01-18T22:54:30.516Z,95857.47
2023-01-18T22:56:57.732Z,95861.09
2023-01-18T22:59:25.139Z,95870.78
2023-01-18T23:01:52.565Z,95868.38
2023-01-18T23:04:20.585Z,95867.34
2023-01-18T23:06:50.659Z,95865.78
2023-01-18T23:09:18.676Z,95861.38
2023-01-18T23:11:47.835Z,95866.06
2023-01-18T23:14:34.206Z,95865.59
2023-01-18T23:17:39.993Z,95868.19
2023-01-18T23:20:11.180Z,95869.94
2023-01-18T23:22:38.514Z,95870.78
2023-01-18T23:25:06.443Z,95871.69
2023-01-18T23:27:33.736Z,95866.50
2023-01-18T23:30:01.162Z,95865.75
2023-01-18T23:32:30.565Z,95867.63
2023-01-18T23:35:00.069Z,95868.59
2023-01-18T23:37:27.843Z,95864.47
2023-01-18T23:40:14.166Z,95860.56
2023-01-18T23:43:00.868Z,95871.44
2023-01-18T23:45:46.725Z,95869.75
2023-01-18T23:48:38.881Z,95875.00
2023-01-18T23:51:27.233Z,95876.38
2023-01-18T23:54:16.876Z,95869.88
2023-01-18T23:56:46.476Z,95878.22
2023-01-18T23:59:14.192Z,95870.94
